createdAt,value
2022-12-16T00:00:10.123Z,0.00
2022-12-16T00:01:10.273Z,0.00
2022-12-16T00:02:10.100Z,0.00
2022-12-16T00:03:10.241Z,0.00
2022-12-16T00:04:10.054Z,0.00
2022-12-16T00:05:10.070Z,0.00
2022-12-16T00:06:10.038Z,0.00
2022-12-16T00:07:10.016Z,0.00
2022-12-16T00:08:10.003Z,0.00
2022-12-16T00:09:09.991Z,0.00
2022-12-16T00:10:09.983Z,0.00
2022-12-16T00:11:09.994Z,0.00
2022-12-16T00:12:09.966Z,0.00
2022-12-16T00:13:10.759Z,0.00
2022-12-16T00:14:09.933Z,0.00
2022-12-16T00:15:09.927Z,0.00
2022-12-16T00:16:09.992Z,0.00
2022-12-16T00:17:09.916Z,0.00
2022-12-16T00:18:09.884Z,0.00
2022-12-16T00:19:09.871Z,0.00
2022-12-16T00:20:09.865Z,0.00
2022-12-16T00:21:09.867Z,0.00
2022-12-16T00:22:09.841Z,0.00
2022-12-16T00:23:09.826Z,0.00
2022-12-16T00:24:09.822Z,0.00
2022-12-16T00:25:09.800Z,0.00
2022-12-16T00:26:09.801Z,0.00
2022-12-16T00:27:09.772Z,0.00
2022-12-16T00:28:09.762Z,0.00
2022-12-16T00:29:09.765Z,0.00
2022-12-16T00:30:09.735Z,0.00
2022-12-16T00:31:09.786Z,0.00
2022-12-16T00:32:09.717Z,0.00
2022-12-16T00:33:09.718Z,0.00
2022-12-16T00:34:09.692Z,0.00
2022-12-16T00:35:09.691Z,0.00
2022-12-16T00:36:09.681Z,0.00
2022-12-16T00:37:09.659Z,0.00
2022-12-16T00:38:09.645Z,0.00
2022-12-16T00:39:09.630Z,0.00
2022-12-16T00:40:09.622Z,0.00
2022-12-16T00:41:09.636Z,0.00
2022-12-16T00:42:09.602Z,0.00
2022-12-16T00:43:09.583Z,0.00
2022-12-16T00:44:09.572Z,0.00
2022-12-16T00:45:09.683Z,0.00
2022-12-16T00:46:09.736Z,0.00
2022-12-16T00:47:09.573Z,0.00
2022-12-16T00:48:09.523Z,0.00
2022-12-16T00:49:09.543Z,0.00
2022-12-16T00:50:09.509Z,0.00
2022-12-16T00:51:09.531Z,0.00
2022-12-16T00:52:09.473Z,0.00
2022-12-16T00:53:09.515Z,0.00
2022-12-16T00:54:09.498Z,0.00
2022-12-16T00:55:09.439Z,0.00
2022-12-16T00:56:09.443Z,0.00
2022-12-16T00:57:09.427Z,0.00
2022-12-16T00:58:09.398Z,0.00
2022-12-16T00:59:09.392Z,0.00
2022-12-16T01:00:09.502Z,0.00
2022-12-16T01:01:09.474Z,0.00
2022-12-16T01:02:09.537Z,0.00
2022-12-16T01:03:09.529Z,0.00
2022-12-16T01:04:09.333Z,0.00
2022-12-16T01:05:09.386Z,0.00
2022-12-16T01:06:09.333Z,0.00
2022-12-16T01:07:09.309Z,0.00
2022-12-16T01:08:09.312Z,0.00
2022-12-16T01:09:09.274Z,0.00
2022-12-16T01:10:09.256Z,0.00
2022-12-16T01:11:09.243Z,0.47
2022-12-16T01:12:09.292Z,0.00
2022-12-16T01:13:09.225Z,0.00
2022-12-16T01:14:09.210Z,0.00
2022-12-16T01:15:09.199Z,0.00
2022-12-16T01:16:09.328Z,0.00
2022-12-16T01:17:09.202Z,0.00
2022-12-16T01:18:09.185Z,0.00
2022-12-16T01:19:09.159Z,0.00
2022-12-16T01:20:09.136Z,0.00
2022-12-16T01:21:09.140Z,0.00
2022-12-16T01:22:09.129Z,0.00
2022-12-16T01:23:09.115Z,0.00
2022-12-16T01:24:09.122Z,0.00
2022-12-16T01:25:09.082Z,0.00
2022-12-16T01:26:09.077Z,0.00
2022-12-16T01:27:09.072Z,0.00
2022-12-16T01:28:09.044Z,0.00
2022-12-16T01:29:09.029Z,0.00
2022-12-16T01:30:09.102Z,0.00
2022-12-16T01:31:09.006Z,0.00
2022-12-16T01:32:09.089Z,0.00
2022-12-16T01:33:08.980Z,0.00
2022-12-16T01:34:08.981Z,0.00
2022-12-16T01:35:29.540Z,0.00
2022-12-16T01:36:08.996Z,0.00
2022-12-16T01:37:08.970Z,0.00
2022-12-16T01:38:08.920Z,0.00
2022-12-16T01:39:08.917Z,0.00
2022-12-16T01:40:08.894Z,0.00
2022-12-16T01:41:08.895Z,0.00
2022-12-16T01:42:08.888Z,0.00
2022-12-16T01:43:08.862Z,0.00
2022-12-16T01:44:08.847Z,0.00
2022-12-16T01:45:08.833Z,0.00
2022-12-16T01:46:08.895Z,0.00
2022-12-16T01:47:08.831Z,0.00
2022-12-16T01:48:08.795Z,0.00
2022-12-16T01:49:08.795Z,0.00
2022-12-16T01:50:08.775Z,0.00
2022-12-16T01:51:08.763Z,0.00
2022-12-16T01:52:08.770Z,0.00
2022-12-16T01:53:08.754Z,0.00
2022-12-16T01:54:08.730Z,0.00
2022-12-16T01:55:08.724Z,0.00
2022-12-16T01:56:08.703Z,0.00
2022-12-16T01:57:08.712Z,0.00
2022-12-16T01:58:08.679Z,0.00
2022-12-16T01:59:08.674Z,0.00
2022-12-16T02:00:08.653Z,0.00
2022-12-16T02:01:08.754Z,0.00
2022-12-16T02:02:08.884Z,0.00
2022-12-16T02:03:08.661Z,0.00
2022-12-16T02:04:08.606Z,0.00
2022-12-16T02:05:08.637Z,0.00
2022-12-16T02:06:08.614Z,0.00
2022-12-16T02:07:08.614Z,0.69
2022-12-16T02:08:08.573Z,0.00
2022-12-16T02:09:08.592Z,0.00
2022-12-16T02:10:08.538Z,0.00
2022-12-16T02:11:08.522Z,0.00
2022-12-16T02:12:08.579Z,0.00
2022-12-16T02:13:08.546Z,0.00
2022-12-16T02:14:08.486Z,0.00
2022-12-16T02:15:08.476Z,0.00
2022-12-16T02:16:11.675Z,0.00
2022-12-16T02:17:08.560Z,0.00
2022-12-16T02:18:08.455Z,0.00
2022-12-16T02:19:08.423Z,0.00
2022-12-16T02:20:08.436Z,0.00
2022-12-16T02:21:08.414Z,0.00
2022-12-16T02:22:08.393Z,0.00
2022-12-16T02:23:09.126Z,0.00
2022-12-16T02:24:08.382Z,0.00
2022-12-16T02:25:08.374Z,0.00
2022-12-16T02:26:08.343Z,0.00
2022-12-16T02:27:08.337Z,0.00
2022-12-16T02:28:08.332Z,0.00
2022-12-16T02:29:08.311Z,0.00
2022-12-16T02:30:08.291Z,0.00
2022-12-16T02:31:08.345Z,0.00
2022-12-16T02:32:08.269Z,0.00
2022-12-16T02:33:08.280Z,0.00
2022-12-16T02:34:08.243Z,0.00
2022-12-16T02:35:08.235Z,0.00
2022-12-16T02:36:08.225Z,0.00
2022-12-16T02:37:08.207Z,0.47
2022-12-16T02:38:08.215Z,0.00
2022-12-16T02:39:08.191Z,0.00
2022-12-16T02:40:08.172Z,0.00
2022-12-16T02:41:08.293Z,0.00
2022-12-16T02:42:08.150Z,0.00
2022-12-16T02:43:08.154Z,0.00
2022-12-16T02:44:08.125Z,0.00
2022-12-16T02:45:08.127Z,0.00
2022-12-16T02:46:08.208Z,0.00
2022-12-16T02:47:08.089Z,0.00
2022-12-16T02:48:08.094Z,0.00
2022-12-16T02:49:08.071Z,0.00
2022-12-16T02:50:08.058Z,0.00
2022-12-16T02:51:08.044Z,0.00
2022-12-16T02:52:08.026Z,0.00
2022-12-16T02:53:08.032Z,0.00
2022-12-16T02:54:08.009Z,0.00
2022-12-16T02:55:07.994Z,0.00
2022-12-16T02:56:07.979Z,0.00
2022-12-16T02:57:07.984Z,0.00
2022-12-16T02:58:07.998Z,0.00
2022-12-16T02:59:07.944Z,0.00
2022-12-16T03:00:07.965Z,0.00
2022-12-16T03:01:08.051Z,0.00
2022-12-16T03:02:08.117Z,0.00
2022-12-16T03:03:08.148Z,0.00
2022-12-16T03:06:34.615Z,0.00
2022-12-16T03:07:31.861Z,0.00
2022-12-16T03:08:31.868Z,0.00
2022-12-16T03:09:31.828Z,0.00
2022-12-16T03:10:31.814Z,0.00
2022-12-16T03:11:31.801Z,0.00
2022-12-16T03:12:31.821Z,0.00
2022-12-16T03:13:32.051Z,0.00
2022-12-16T03:14:31.769Z,0.00
2022-12-16T03:15:31.753Z,0.00
2022-12-16T03:16:31.905Z,0.00
2022-12-16T03:17:31.730Z,0.00
2022-12-16T03:18:31.738Z,0.80
2022-12-16T03:19:31.708Z,0.47
2022-12-16T03:20:31.700Z,0.58
2022-12-16T03:21:31.681Z,1.44
2022-12-16T03:22:31.672Z,0.69
2022-12-16T03:23:31.947Z,0.00
2022-12-16T03:24:31.649Z,0.00
2022-12-16T03:25:31.634Z,0.00
2022-12-16T03:26:31.621Z,1.54
2022-12-16T03:27:31.610Z,0.80
2022-12-16T03:28:31.635Z,0.58
2022-12-16T03:29:31.587Z,0.69
2022-12-16T03:30:31.622Z,1.01
2022-12-16T03:31:31.559Z,1.44
2022-12-16T03:32:31.555Z,1.12
2022-12-16T03:33:31.956Z,0.00
2022-12-16T03:34:31.580Z,1.33
2022-12-16T03:35:31.526Z,0.58
2022-12-16T03:36:31.499Z,1.01
2022-12-16T03:37:31.511Z,0.00
2022-12-16T03:38:31.490Z,0.00
2022-12-16T03:39:31.492Z,0.58
2022-12-16T03:40:31.454Z,0.00
2022-12-16T03:41:31.438Z,0.00
2022-12-16T03:42:31.426Z,0.00
2022-12-16T03:43:31.917Z,0.00
2022-12-16T03:44:31.484Z,0.00
2022-12-16T03:45:31.388Z,0.00
2022-12-16T03:46:31.399Z,0.00
2022-12-16T03:47:31.379Z,0.00
2022-12-16T03:48:31.652Z,0.00
2022-12-16T03:49:31.348Z,0.00
2022-12-16T03:50:31.335Z,0.00
2022-12-16T03:51:31.314Z,0.00
2022-12-16T03:52:31.332Z,0.00
2022-12-16T03:53:31.627Z,0.00
2022-12-16T03:54:31.281Z,0.00
2022-12-16T03:55:31.291Z,0.00
2022-12-16T03:56:31.254Z,0.00
2022-12-16T03:57:31.294Z,0.00
2022-12-16T03:58:31.242Z,0.00
2022-12-16T03:59:31.214Z,0.00
2022-12-16T04:00:31.265Z,0.00
2022-12-16T04:01:31.317Z,0.00
2022-12-16T04:02:31.373Z,0.00
2022-12-16T04:03:31.653Z,0.00
2022-12-16T04:04:31.155Z,0.00
2022-12-16T04:05:31.179Z,0.00
2022-12-16T04:06:31.138Z,0.00
2022-12-16T04:07:31.121Z,0.00
2022-12-16T04:08:31.129Z,0.00
2022-12-16T04:09:31.093Z,0.00
2022-12-16T04:10:31.082Z,0.00
2022-12-16T04:11:31.086Z,0.00
2022-12-16T04:12:31.059Z,0.00
2022-12-16T04:13:31.502Z,0.00
2022-12-16T04:14:31.038Z,0.00
2022-12-16T04:15:31.081Z,0.47
2022-12-16T04:16:31.032Z,0.00
2022-12-16T04:17:31.004Z,0.00
2022-12-16T04:18:31.600Z,0.00
2022-12-16T04:19:30.994Z,0.00
2022-12-16T04:20:30.961Z,0.00
2022-12-16T04:21:30.963Z,0.00
2022-12-16T04:22:30.934Z,0.00
2022-12-16T04:23:31.364Z,0.00
2022-12-16T04:24:30.926Z,0.00
2022-12-16T04:25:30.897Z,0.00
2022-12-16T04:26:30.886Z,0.00
2022-12-16T04:27:30.894Z,0.00
2022-12-16T04:28:30.874Z,0.00
2022-12-16T04:29:30.879Z,0.00
2022-12-16T04:30:30.840Z,0.00
2022-12-16T04:31:30.867Z,0.00
2022-12-16T04:32:30.840Z,0.00
2022-12-16T04:33:31.282Z,0.00
2022-12-16T04:34:30.806Z,0.00
2022-12-16T04:35:30.772Z,0.00
2022-12-16T04:36:30.762Z,0.00
2022-12-16T04:37:30.756Z,0.00
2022-12-16T04:38:30.737Z,0.00
2022-12-16T04:39:30.747Z,0.00
2022-12-16T04:40:30.759Z,0.00
2022-12-16T04:41:30.701Z,0.69
2022-12-16T04:42:30.689Z,0.00
2022-12-16T04:43:30.992Z,2.69
2022-12-16T04:44:30.684Z,0.00
2022-12-16T04:45:30.656Z,0.00
2022-12-16T04:46:30.707Z,0.00
2022-12-16T04:47:30.732Z,0.00
2022-12-16T04:48:30.651Z,0.00
2022-12-16T04:49:30.627Z,0.00
2022-12-16T04:50:30.606Z,0.00
2022-12-16T04:51:30.578Z,0.00
2022-12-16T04:52:30.567Z,0.00
2022-12-16T04:53:30.997Z,0.00
2022-12-16T04:54:30.579Z,0.00
2022-12-16T04:55:30.549Z,0.00
2022-12-16T04:56:30.523Z,0.00
2022-12-16T04:57:30.506Z,0.00
2022-12-16T04:58:30.497Z,0.00
2022-12-16T04:59:30.482Z,0.00
2022-12-16T05:00:30.488Z,0.00
2022-12-16T05:01:30.655Z,0.00
2022-12-16T05:02:30.627Z,0.00
2022-12-16T05:03:30.894Z,0.00
2022-12-16T05:04:30.444Z,0.00
2022-12-16T05:05:30.425Z,0.00
2022-12-16T05:06:30.396Z,0.00
2022-12-16T05:07:36.322Z,0.00
2022-12-16T05:08:31.379Z,0.00
2022-12-16T05:09:30.365Z,0.00
2022-12-16T05:10:30.376Z,0.00
2022-12-16T05:11:30.348Z,0.00
2022-12-16T05:12:30.321Z,0.00
2022-12-16T05:13:30.629Z,0.00
2022-12-16T05:14:30.301Z,0.00
2022-12-16T05:15:30.300Z,0.00
2022-12-16T05:16:30.354Z,0.00
2022-12-16T05:17:30.264Z,0.00
2022-12-16T05:18:30.252Z,0.00
2022-12-16T05:19:31.805Z,0.00
2022-12-16T05:20:30.264Z,0.00
2022-12-16T05:21:30.220Z,0.00
2022-12-16T05:22:30.218Z,0.00
2022-12-16T05:23:30.709Z,0.00
2022-12-16T05:24:30.181Z,0.00
2022-12-16T05:25:30.184Z,0.00
2022-12-16T05:26:30.154Z,0.00
2022-12-16T05:27:30.145Z,0.00
2022-12-16T05:28:30.130Z,0.00
2022-12-16T05:29:30.133Z,0.00
2022-12-16T05:30:33.614Z,0.00
2022-12-16T05:31:30.140Z,0.00
2022-12-16T05:32:30.079Z,0.00
2022-12-16T05:33:30.423Z,0.00
2022-12-16T05:34:30.058Z,0.00
2022-12-16T05:35:30.085Z,0.00
2022-12-16T05:36:30.055Z,0.00
2022-12-16T05:37:30.021Z,0.00
2022-12-16T05:38:30.016Z,0.00
2022-12-16T05:39:30.000Z,0.00
2022-12-16T05:40:30.000Z,0.00
2022-12-16T05:41:29.968Z,0.00
2022-12-16T05:42:29.962Z,0.00
2022-12-16T05:43:30.230Z,0.00
2022-12-16T05:44:29.933Z,0.00
2022-12-16T05:45:29.938Z,0.00
2022-12-16T05:46:30.027Z,0.00
2022-12-16T05:47:29.904Z,0.00
2022-12-16T05:48:29.887Z,0.00
2022-12-16T05:49:29.873Z,0.00
2022-12-16T05:50:29.878Z,0.00
2022-12-16T05:51:29.848Z,0.00
2022-12-16T05:52:29.869Z,0.00
2022-12-16T05:53:30.034Z,0.00
2022-12-16T05:54:29.816Z,0.00
2022-12-16T05:55:33.902Z,0.00
2022-12-16T05:56:29.791Z,0.00
2022-12-16T05:57:29.782Z,0.00
2022-12-16T05:58:29.768Z,0.00
2022-12-16T05:59:29.760Z,0.00
2022-12-16T06:00:29.777Z,0.00
2022-12-16T06:01:29.909Z,0.00
2022-12-16T06:02:29.940Z,0.00
2022-12-16T06:03:29.968Z,0.00
2022-12-16T06:04:29.699Z,0.00
2022-12-16T06:05:29.692Z,0.00
2022-12-16T06:06:29.689Z,0.00
2022-12-16T06:07:29.660Z,0.00
2022-12-16T06:08:29.674Z,0.00
2022-12-16T06:09:29.641Z,0.00
2022-12-16T06:10:29.625Z,0.00
2022-12-16T06:11:29.632Z,0.00
2022-12-16T06:12:29.603Z,0.00
2022-12-16T06:13:29.874Z,0.00
2022-12-16T06:14:29.612Z,0.00
2022-12-16T06:15:29.575Z,0.00
2022-12-16T06:16:29.622Z,0.00
2022-12-16T06:17:29.544Z,0.00
2022-12-16T06:18:29.528Z,0.00
2022-12-16T06:19:29.520Z,0.00
2022-12-16T06:20:29.509Z,0.00
2022-12-16T06:21:29.514Z,0.00
2022-12-16T06:22:29.481Z,0.00
2022-12-16T06:23:29.479Z,0.00
2022-12-16T06:24:29.480Z,0.00
2022-12-16T06:25:29.457Z,0.00
2022-12-16T06:26:29.453Z,0.00
2022-12-16T06:27:29.430Z,0.00
2022-12-16T06:28:29.414Z,0.00
2022-12-16T06:29:29.402Z,0.00
2022-12-16T06:30:29.394Z,0.00
2022-12-16T06:31:29.456Z,0.00
2022-12-16T06:32:29.377Z,0.00
2022-12-16T06:33:29.569Z,0.00
2022-12-16T06:34:29.345Z,0.00
2022-12-16T06:35:29.330Z,0.00
2022-12-16T06:36:29.339Z,0.00
2022-12-16T06:37:29.314Z,0.00
2022-12-16T06:38:29.299Z,0.00
2022-12-16T06:39:29.290Z,0.00
2022-12-16T06:40:29.293Z,0.00
2022-12-16T06:41:29.287Z,0.00
2022-12-16T06:42:29.251Z,0.00
2022-12-16T06:43:29.421Z,0.00
2022-12-16T06:44:29.226Z,0.00
2022-12-16T06:45:34.513Z,0.00
2022-12-16T06:46:29.287Z,0.00
2022-12-16T06:47:29.189Z,0.00
2022-12-16T06:48:29.178Z,0.00
2022-12-16T06:49:29.171Z,0.00
2022-12-16T06:50:29.155Z,0.00
2022-12-16T06:51:29.162Z,0.00
2022-12-16T06:52:29.129Z,0.00
2022-12-16T06:53:29.399Z,0.00
2022-12-16T06:54:29.112Z,0.00
2022-12-16T06:55:29.100Z,0.00
2022-12-16T06:56:29.125Z,0.00
2022-12-16T06:57:29.075Z,0.00
2022-12-16T06:58:29.061Z,0.00
2022-12-16T06:59:29.047Z,0.00
2022-12-16T07:00:29.036Z,0.00
2022-12-16T07:01:29.199Z,0.00
2022-12-16T07:02:29.091Z,0.00
2022-12-16T07:03:34.096Z,0.00
2022-12-16T07:04:28.993Z,0.00
2022-12-16T07:05:28.977Z,0.00
2022-12-16T07:06:28.986Z,0.00
2022-12-16T07:07:28.968Z,0.00
2022-12-16T07:08:28.944Z,0.00
2022-12-16T07:09:28.936Z,0.00
2022-12-16T07:10:28.919Z,0.00
2022-12-16T07:11:28.915Z,0.00
2022-12-16T07:12:28.939Z,0.00
2022-12-16T07:13:29.153Z,0.00
2022-12-16T07:14:28.872Z,0.00
2022-12-16T07:15:28.866Z,0.00
2022-12-16T07:16:28.968Z,0.00
2022-12-16T07:17:28.860Z,0.00
2022-12-16T07:18:28.828Z,0.00
2022-12-16T07:19:28.814Z,0.00
2022-12-16T07:20:28.884Z,0.00
2022-12-16T07:21:28.792Z,0.00
2022-12-16T07:22:28.798Z,0.00
2022-12-16T07:23:28.769Z,0.00
2022-12-16T07:24:28.751Z,0.00
2022-12-16T07:25:28.743Z,0.00
2022-12-16T07:26:28.731Z,0.00
2022-12-16T07:27:28.735Z,0.00
2022-12-16T07:28:28.723Z,0.00
2022-12-16T07:29:28.701Z,0.00
2022-12-16T07:30:28.723Z,0.00
2022-12-16T07:31:28.726Z,0.00
2022-12-16T07:32:28.675Z,0.00
2022-12-16T07:33:28.651Z,0.00
2022-12-16T07:34:28.636Z,0.00
2022-12-16T07:35:28.628Z,0.00
2022-12-16T07:36:28.619Z,0.00
2022-12-16T07:37:28.616Z,0.00
2022-12-16T07:38:28.590Z,0.00
2022-12-16T07:39:28.579Z,0.00
2022-12-16T07:40:28.646Z,0.00
2022-12-16T07:41:28.553Z,0.00
2022-12-16T07:42:28.559Z,0.00
2022-12-16T07:43:28.532Z,0.00
2022-12-16T07:44:28.541Z,0.00
2022-12-16T07:45:28.655Z,0.00
2022-12-16T07:46:28.591Z,0.00
2022-12-16T07:47:28.504Z,0.00
2022-12-16T07:48:28.486Z,0.00
2022-12-16T07:49:28.465Z,0.00
2022-12-16T07:50:28.506Z,0.00
2022-12-16T07:51:28.438Z,0.00
2022-12-16T07:52:28.449Z,0.00
2022-12-16T07:53:31.223Z,0.00
2022-12-16T07:54:28.400Z,0.00
2022-12-16T07:55:28.393Z,0.00
2022-12-16T07:56:28.379Z,0.00
2022-12-16T07:57:28.381Z,0.00
2022-12-16T07:58:28.360Z,0.00
2022-12-16T07:59:28.345Z,0.00
2022-12-16T08:00:28.433Z,0.00
2022-12-16T08:01:28.438Z,0.00
2022-12-16T08:02:28.483Z,0.00
2022-12-16T08:03:28.389Z,0.00
2022-12-16T08:04:28.285Z,0.00
2022-12-16T08:05:28.276Z,0.00
2022-12-16T08:06:28.256Z,0.00
2022-12-16T08:07:28.261Z,0.00
2022-12-16T08:08:28.236Z,0.00
2022-12-16T08:09:28.222Z,0.00
2022-12-16T08:10:28.263Z,0.00
2022-12-16T08:11:28.197Z,0.00
2022-12-16T08:12:28.201Z,0.00
2022-12-16T08:13:28.182Z,0.00
2022-12-16T08:14:28.164Z,0.00
2022-12-16T08:15:28.152Z,0.00
2022-12-16T08:16:28.264Z,0.00
2022-12-16T08:17:28.148Z,0.00
2022-12-16T08:18:28.117Z,0.00
2022-12-16T08:19:28.104Z,0.00
2022-12-16T08:20:28.090Z,0.00
2022-12-16T08:21:28.084Z,0.00
2022-12-16T08:22:28.091Z,0.00
2022-12-16T08:23:28.060Z,0.00
2022-12-16T08:24:28.046Z,0.00
2022-12-16T08:25:28.032Z,0.00
2022-12-16T08:26:28.025Z,0.00
2022-12-16T08:27:28.009Z,0.00
2022-12-16T08:28:28.017Z,0.00
2022-12-16T08:29:43.624Z,0.80
2022-12-16T08:30:28.124Z,0.00
2022-12-16T08:31:28.020Z,0.00
2022-12-16T08:32:27.989Z,0.00
2022-12-16T08:33:27.952Z,0.00
2022-12-16T08:34:27.915Z,0.00
2022-12-16T08:35:27.906Z,0.00
2022-12-16T08:36:27.893Z,0.00
2022-12-16T08:37:27.881Z,0.00
2022-12-16T08:38:27.885Z,0.00
2022-12-16T08:39:27.852Z,0.00
2022-12-16T08:40:36.359Z,0.00
2022-12-16T08:41:28.833Z,0.00
2022-12-16T08:42:27.817Z,0.00
2022-12-16T08:43:27.827Z,0.00
2022-12-16T08:44:27.789Z,0.00
2022-12-16T08:45:27.780Z,0.00
2022-12-16T08:46:27.800Z,0.00
2022-12-16T08:47:27.749Z,0.00
2022-12-16T08:48:27.844Z,0.00
2022-12-16T08:49:27.731Z,0.00
2022-12-16T08:50:27.708Z,0.00
2022-12-16T08:51:27.698Z,0.00
2022-12-16T08:52:27.680Z,0.00
2022-12-16T08:53:27.686Z,0.00
2022-12-16T08:54:27.656Z,0.00
2022-12-16T08:55:29.653Z,0.00
2022-12-16T08:56:27.628Z,0.00
2022-12-16T08:57:27.618Z,0.00
2022-12-16T08:58:27.620Z,0.00
2022-12-16T08:59:27.590Z,0.00
2022-12-16T09:00:27.576Z,0.00
2022-12-16T09:01:27.684Z,0.00
2022-12-16T09:02:27.845Z,0.00
2022-12-16T09:03:27.613Z,0.00
2022-12-16T09:04:27.551Z,0.00
2022-12-16T09:05:27.513Z,0.00
2022-12-16T09:06:27.499Z,0.00
2022-12-16T09:07:27.495Z,0.00
2022-12-16T09:08:27.488Z,0.00
2022-12-16T09:09:27.469Z,0.00
2022-12-16T09:10:27.444Z,0.00
2022-12-16T09:11:27.429Z,0.00
2022-12-16T09:12:27.414Z,0.00
2022-12-16T09:13:27.421Z,0.00
2022-12-16T09:14:27.387Z,0.00
2022-12-16T09:15:27.414Z,0.00
2022-12-16T09:16:27.437Z,0.00
2022-12-16T09:17:27.347Z,0.00
2022-12-16T09:18:27.353Z,0.00
2022-12-16T09:19:27.326Z,0.00
2022-12-16T09:20:27.325Z,0.00
2022-12-16T09:21:31.729Z,0.00
2022-12-16T09:22:27.288Z,0.00
2022-12-16T09:23:27.289Z,0.00
2022-12-16T09:24:27.256Z,0.00
2022-12-16T09:25:27.242Z,0.00
2022-12-16T09:26:27.329Z,0.47
2022-12-16T09:27:27.219Z,0.00
2022-12-16T09:28:27.218Z,0.58
2022-12-16T09:29:27.190Z,0.90
2022-12-16T09:30:27.176Z,1.96
2022-12-16T09:31:27.264Z,0.69
2022-12-16T09:32:27.146Z,1.12
2022-12-16T09:33:27.167Z,0.47
2022-12-16T09:34:27.123Z,1.33
2022-12-16T09:35:27.111Z,1.44
2022-12-16T09:36:27.123Z,1.54
2022-12-16T09:37:27.088Z,0.58
2022-12-16T09:38:27.072Z,0.47
2022-12-16T09:39:27.074Z,0.58
2022-12-16T09:40:27.041Z,0.47
2022-12-16T09:41:27.042Z,0.69
2022-12-16T09:42:27.014Z,2.17
2022-12-16T09:43:27.011Z,0.58
2022-12-16T09:44:27.008Z,0.58
2022-12-16T09:45:26.974Z,0.58
2022-12-16T09:46:27.052Z,0.69
2022-12-16T09:47:26.959Z,0.80
2022-12-16T09:48:26.934Z,0.00
2022-12-16T09:49:26.942Z,0.00
2022-12-16T09:50:26.907Z,1.54
2022-12-16T09:51:26.895Z,0.00
2022-12-16T09:52:26.913Z,0.90
2022-12-16T09:53:26.866Z,0.00
2022-12-16T09:54:26.872Z,0.00
2022-12-16T09:55:26.842Z,0.47
2022-12-16T09:56:26.827Z,1.33
2022-12-16T09:57:26.824Z,2.17
2022-12-16T09:58:26.802Z,0.00
2022-12-16T09:59:26.809Z,0.00
2022-12-16T10:00:26.771Z,0.00
2022-12-16T10:01:26.882Z,2.69
2022-12-16T10:02:26.957Z,1.54
2022-12-16T10:03:26.856Z,1.65
2022-12-16T10:04:26.789Z,0.90
2022-12-16T10:05:26.706Z,1.96
2022-12-16T10:06:26.761Z,1.54
2022-12-16T10:07:26.681Z,1.12
2022-12-16T10:08:26.694Z,0.00
2022-12-16T10:09:26.668Z,1.22
2022-12-16T10:10:26.641Z,1.86
2022-12-16T10:11:26.625Z,3.00
2022-12-16T10:12:26.616Z,1.01
2022-12-16T10:13:26.597Z,0.58
2022-12-16T10:14:26.607Z,0.47
2022-12-16T10:15:26.571Z,0.00
2022-12-16T10:16:26.640Z,1.33
2022-12-16T10:17:26.546Z,0.00
2022-12-16T10:18:26.601Z,0.00
2022-12-16T10:19:26.536Z,0.00
2022-12-16T10:20:26.511Z,0.58
2022-12-16T10:21:26.499Z,2.38
2022-12-16T10:22:26.496Z,0.00
2022-12-16T10:23:26.466Z,1.12
2022-12-16T10:24:26.509Z,1.86
2022-12-16T10:25:26.445Z,2.28
2022-12-16T10:26:26.430Z,0.00
2022-12-16T10:27:26.413Z,2.90
2022-12-16T10:28:26.400Z,1.65
2022-12-16T10:29:26.405Z,3.10
2022-12-16T10:30:26.375Z,2.59
2022-12-16T10:31:31.356Z,3.20
2022-12-16T10:32:26.348Z,1.96
2022-12-16T10:33:26.333Z,1.22
2022-12-16T10:34:26.335Z,2.07
2022-12-16T10:35:26.303Z,3.10
2022-12-16T10:36:26.295Z,1.75
2022-12-16T10:37:26.279Z,3.00
2022-12-16T10:38:26.264Z,0.00
2022-12-16T10:39:26.267Z,1.12
2022-12-16T10:40:26.260Z,2.28
2022-12-16T10:41:26.226Z,0.80
2022-12-16T10:42:26.213Z,0.69
2022-12-16T10:43:26.196Z,2.28
2022-12-16T10:44:26.201Z,2.07
2022-12-16T10:45:26.169Z,1.65
2022-12-16T10:46:26.201Z,0.80
2022-12-16T10:47:26.145Z,1.22
2022-12-16T10:48:26.135Z,1.65
2022-12-16T10:49:26.193Z,1.33
2022-12-16T10:50:26.125Z,0.69
2022-12-16T10:51:26.093Z,1.86
2022-12-16T10:52:26.085Z,2.28
2022-12-16T10:53:26.079Z,1.96
2022-12-16T10:54:26.056Z,1.96
2022-12-16T10:55:26.062Z,1.12
2022-12-16T10:56:26.052Z,1.33
2022-12-16T10:57:26.017Z,1.65
2022-12-16T10:58:26.002Z,0.69
2022-12-16T10:59:25.985Z,0.00
2022-12-16T11:00:25.993Z,0.00
2022-12-16T11:01:26.069Z,0.00
2022-12-16T11:02:26.183Z,0.00
2022-12-16T11:03:26.093Z,0.00
2022-12-16T11:04:25.979Z,1.44
2022-12-16T11:05:25.920Z,1.12
2022-12-16T11:06:25.892Z,2.79
2022-12-16T11:07:25.882Z,1.44
2022-12-16T11:08:25.869Z,1.33
2022-12-16T11:09:25.853Z,0.00
2022-12-16T11:10:25.868Z,1.65
2022-12-16T11:11:25.834Z,0.80
2022-12-16T11:12:25.837Z,1.96
2022-12-16T11:13:25.804Z,1.44
2022-12-16T11:14:25.789Z,0.00
2022-12-16T11:15:29.789Z,0.00
2022-12-16T11:16:25.854Z,1.65
2022-12-16T11:17:25.781Z,1.86
2022-12-16T11:18:25.742Z,1.44
2022-12-16T11:19:25.725Z,0.47
2022-12-16T11:20:25.729Z,0.69
2022-12-16T11:21:25.698Z,0.69
2022-12-16T11:22:25.690Z,1.65
2022-12-16T11:23:25.672Z,0.90
2022-12-16T11:24:25.657Z,1.44
2022-12-16T11:25:25.657Z,0.58
2022-12-16T11:26:25.633Z,1.65
2022-12-16T11:27:25.617Z,1.65
2022-12-16T11:28:25.650Z,1.65
2022-12-16T11:29:25.594Z,0.00
2022-12-16T11:30:25.627Z,1.75
2022-12-16T11:31:25.724Z,0.69
2022-12-16T11:32:25.553Z,0.47
2022-12-16T11:33:25.535Z,2.38
2022-12-16T11:34:25.526Z,1.01
2022-12-16T11:35:25.529Z,1.01
2022-12-16T11:36:25.507Z,0.80
2022-12-16T11:37:25.481Z,0.00
2022-12-16T11:38:25.479Z,0.00
2022-12-16T11:39:25.459Z,0.69
2022-12-16T11:40:25.477Z,0.47
2022-12-16T11:41:25.432Z,0.80
2022-12-16T11:42:25.424Z,1.01
2022-12-16T11:43:25.403Z,1.96
2022-12-16T11:44:25.415Z,0.00
2022-12-16T11:45:25.399Z,1.96
2022-12-16T11:46:25.420Z,0.00
2022-12-16T11:47:25.354Z,1.44
2022-12-16T11:48:25.338Z,2.28
2022-12-16T11:49:25.809Z,0.90
2022-12-16T11:50:25.330Z,1.12
2022-12-16T11:51:25.300Z,1.75
2022-12-16T11:52:40.702Z,1.86
2022-12-16T11:53:26.276Z,0.00
2022-12-16T11:54:25.265Z,1.96
2022-12-16T11:55:48.112Z,1.54
2022-12-16T11:56:25.329Z,0.00
2022-12-16T11:57:25.220Z,0.58
2022-12-16T11:58:25.210Z,0.90
2022-12-16T11:59:25.208Z,2.90
2022-12-16T12:00:25.228Z,0.80
2022-12-16T12:01:25.223Z,0.00
2022-12-16T12:02:25.221Z,0.00
2022-12-16T12:03:25.344Z,1.96
2022-12-16T12:04:25.183Z,0.00
2022-12-16T12:05:25.115Z,0.69
2022-12-16T12:06:25.122Z,1.22
2022-12-16T12:07:25.087Z,1.33
2022-12-16T12:08:25.080Z,0.00
2022-12-16T12:09:25.066Z,1.33
2022-12-16T12:10:25.053Z,3.40
2022-12-16T12:11:25.054Z,2.07
2022-12-16T12:12:25.030Z,2.17
2022-12-16T12:13:25.014Z,1.01
2022-12-16T12:14:25.000Z,2.07
2022-12-16T12:15:24.984Z,0.58
2022-12-16T12:16:25.109Z,1.22
2022-12-16T12:17:24.958Z,1.22
2022-12-16T12:18:24.947Z,0.80
2022-12-16T12:19:24.934Z,0.80
2022-12-16T12:20:24.925Z,1.33
2022-12-16T12:21:24.925Z,1.12
2022-12-16T12:22:24.894Z,1.54
2022-12-16T12:23:24.884Z,2.38
2022-12-16T12:24:24.870Z,2.69
2022-12-16T12:25:24.856Z,1.96
2022-12-16T12:26:25.126Z,1.22
2022-12-16T12:27:24.825Z,1.22
2022-12-16T12:28:24.813Z,1.86
2022-12-16T12:29:24.803Z,1.22
2022-12-16T12:30:24.788Z,1.22
2022-12-16T12:31:24.871Z,1.01
2022-12-16T12:32:24.785Z,0.00
2022-12-16T12:33:24.748Z,1.01
2022-12-16T12:34:24.736Z,1.22
2022-12-16T12:35:24.719Z,0.00
2022-12-16T12:36:24.753Z,1.65
2022-12-16T12:37:24.693Z,1.12
2022-12-16T12:38:24.709Z,0.00
2022-12-16T12:39:24.668Z,1.96
2022-12-16T12:40:24.657Z,1.01
2022-12-16T12:41:24.668Z,0.00
2022-12-16T12:42:24.629Z,1.75
2022-12-16T12:43:24.616Z,1.86
2022-12-16T12:44:24.789Z,2.28
2022-12-16T12:45:24.591Z,0.00
2022-12-16T12:46:24.624Z,1.22
2022-12-16T12:47:24.565Z,0.00
2022-12-16T12:48:24.576Z,1.12
2022-12-16T12:49:24.537Z,0.58
2022-12-16T12:50:24.526Z,1.65
2022-12-16T12:51:24.525Z,0.00
2022-12-16T12:52:24.498Z,2.28
2022-12-16T12:53:24.487Z,0.00
2022-12-16T12:54:27.658Z,0.58
2022-12-16T12:55:24.457Z,0.69
2022-12-16T12:56:24.460Z,1.65
2022-12-16T12:57:24.427Z,0.47
2022-12-16T12:58:24.415Z,1.01
2022-12-16T12:59:24.402Z,0.90
2022-12-16T13:00:24.391Z,0.00
2022-12-16T13:01:24.478Z,1.54
2022-12-16T13:02:24.567Z,1.54
2022-12-16T13:03:24.465Z,1.44
2022-12-16T13:04:24.385Z,0.69
2022-12-16T13:05:24.869Z,1.12
2022-12-16T13:06:24.329Z,0.80
2022-12-16T13:07:24.295Z,2.69
2022-12-16T13:08:24.281Z,1.96
2022-12-16T13:09:24.272Z,1.22
2022-12-16T13:10:24.258Z,0.00
2022-12-16T13:11:24.263Z,1.01
2022-12-16T13:12:24.230Z,0.00
2022-12-16T13:13:24.232Z,1.65
2022-12-16T13:14:24.209Z,1.33
2022-12-16T13:15:24.194Z,0.58
2022-12-16T13:16:24.258Z,1.65
2022-12-16T13:17:25.909Z,1.75
2022-12-16T13:18:24.154Z,1.86
2022-12-16T13:19:24.136Z,1.22
2022-12-16T13:20:24.144Z,1.33